sensor_id;sensor_type;location;lat;lon;timestamp;temperature;humidity
2112;DHT22;1062;52.538;13.400;2022-12-26T00:01:22;9.10;99.90
2112;DHT22;1062;52.538;13.400;2022-12-26T00:03:48;9.00;99.90
2112;DHT22;1062;52.538;13.400;2022-12-26T00:06:17;9.00;99.90
2112;DHT22;1062;52.538;13.400;2022-12-26T00:08:43;9.10;99.90
2112;DHT22;1062;52.538;13.400;2022-12-26T00:11:09;9.00;99.90
2112;DHT22;1062;52.538;13.400;2022-12-26T00:13:35;9.10;99.90
2112;DHT22;1062;52.538;13.400;2022-12-26T00:16:15;9.10;99.90
2112;DHT22;1062;52.538;13.400;2022-12-26T00:18:41;9.10;99.90
2112;DHT22;1062;52.538;13.400;2022-12-26T00:21:09;9.10;99.90
2112;DHT22;1062;52.538;13.400;2022-12-26T00:23:36;9.20;99.90
2112;DHT22;1062;52.538;13.400;2022-12-26T00:26:10;9.20;99.90
2112;DHT22;1062;52.538;13.400;2022-12-26T00:28:36;9.20;99.90
2112;DHT22;1062;52.538;13.400;2022-12-26T00:31:08;9.20;99.90
2112;DHT22;1062;52.538;13.400;2022-12-26T00:33:34;9.10;99.90
2112;DHT22;1062;52.538;13.400;2022-12-26T00:36:01;9.20;99.90
2112;DHT22;1062;52.538;13.400;2022-12-26T00:38:27;9.20;99.90
2112;DHT22;1062;52.538;13.400;2022-12-26T00:40:52;9.20;99.90
2112;DHT22;1062;52.538;13.400;2022-12-26T00:43:18;9.20;99.90
2112;DHT22;1062;52.538;13.400;2022-12-26T00:45:46;9.20;99.90
2112;DHT22;1062;52.538;13.400;2022-12-26T00:48:12;9.20;99.90
2112;DHT22;1062;52.538;13.400;2022-12-26T00:50:37;9.20;99.90
2112;DHT22;1062;52.538;13.400;2022-12-26T00:53:03;9.20;99.90
2112;DHT22;1062;52.538;13.400;2022-12-26T00:55:28;9.30;99.90
2112;DHT22;1062;52.538;13.400;2022-12-26T00:57:54;9.30;99.90
2112;DHT22;1062;52.538;13.400;2022-12-26T01:00:19;9.20;99.90
2112;DHT22;1062;52.538;13.400;2022-12-26T01:02:45;9.30;99.90
2112;DHT22;1062;52.538;13.400;2022-12-26T01:05:11;9.30;99.90
2112;DHT22;1062;52.538;13.400;2022-12-26T01:07:37;9.30;99.90
2112;DHT22;1062;52.538;13.400;2022-12-26T01:10:08;9.40;99.90
2112;DHT22;1062;52.538;13.400;2022-12-26T01:12:33;9.30;99.90
2112;DHT22;1062;52.538;13.400;2022-12-26T01:14:59;9.30;99.90
2112;DHT22;1062;52.538;13.400;2022-12-26T01:17:27;9.30;99.90
2112;DHT22;1062;52.538;13.400;2022-12-26T01:19:53;9.40;99.90
2112;DHT22;1062;52.538;13.400;2022-12-26T01:22:19;9.40;99.90
2112;DHT22;1062;52.538;13.400;2022-12-26T01:24:45;9.40;99.90
2112;DHT22;1062;52.538;13.400;2022-12-26T01:27:11;9.40;99.90
2112;DHT22;1062;52.538;13.400;2022-12-26T01:29:36;9.40;99.90
2112;DHT22;1062;52.538;13.400;2022-12-26T01:32:02;9.40;99.90
2112;DHT22;1062;52.538;13.400;2022-12-26T01:34:28;9.40;99.90
2112;DHT22;1062;52.538;13.400;2022-12-26T01:36:54;9.50;99.90
2112;DHT22;1062;52.538;13.400;2022-12-26T01:39:21;9.50;99.90
2112;DHT22;1062;52.538;13.400;2022-12-26T01:41:47;9.50;99.90
2112;DHT22;1062;52.538;13.400;2022-12-26T01:47:17;9.50;99.90
2112;DHT22;1062;52.538;13.400;2022-12-26T01:49:46;9.50;99.90
2112;DHT22;1062;52.538;13.400;2022-12-26T01:52:22;9.50;99.90
2112;DHT22;1062;52.538;13.400;2022-12-26T01:54:51;9.50;99.90
2112;DHT22;1062;52.538;13.400;2022-12-26T01:57:27;9.50;99.90
2112;DHT22;1062;52.538;13.400;2022-12-26T01:59:56;9.50;99.90
2112;DHT22;1062;52.538;13.400;2022-12-26T02:02:24;9.50;99.90
2112;DHT22;1062;52.538;13.400;2022-12-26T02:04:51;9.50;99.90
2112;DHT22;1062;52.538;13.400;2022-12-26T02:07:39;9.40;99.90
2112;DHT22;1062;52.538;13.400;2022-12-26T02:10:08;9.40;99.90
2112;DHT22;1062;52.538;13.400;2022-12-26T02:12:35;9.40;99.90
2112;DHT22;1062;52.538;13.400;2022-12-26T02:15:04;9.30;99.90
2112;DHT22;1062;52.538;13.400;2022-12-26T02:17:30;9.40;99.90
2112;DHT22;1062;52.538;13.400;2022-12-26T02:20:18;9.40;99.90
2112;DHT22;1062;52.538;13.400;2022-12-26T02:28:13;9.50;99.90
2112;DHT22;1062;52.538;13.400;2022-12-26T02:31:00;9.60;99.90
2112;DHT22;1062;52.538;13.400;2022-12-26T02:36:46;9.60;99.90
2112;DHT22;1062;52.538;13.400;2022-12-26T02:44:42;9.70;99.90
2112;DHT22;1062;52.538;13.400;2022-12-26T02:56:31;9.70;99.90
2112;DHT22;1062;52.538;13.400;2022-12-26T02:59:34;9.70;99.90
2112;DHT22;1062;52.538;13.400;2022-12-26T03:02:34;9.70;99.90
2112;DHT22;1062;52.538;13.400;2022-12-26T03:05:35;9.80;99.90
2112;DHT22;1062;52.538;13.400;2022-12-26T03:08:37;9.70;99.90
2112;DHT22;1062;52.538;13.400;2022-12-26T03:11:27;9.70;99.90
2112;DHT22;1062;52.538;13.400;2022-12-26T03:14:21;9.70;99.90
2112;DHT22;1062;52.538;13.400;2022-12-26T03:16:50;9.70;99.90
2112;DHT22;1062;52.538;13.400;2022-12-26T03:19:36;9.70;99.90
2112;DHT22;1062;52.538;13.400;2022-12-26T03:22:04;9.70;99.90
2112;DHT22;1062;52.538;13.400;2022-12-26T03:24:51;9.70;99.90
2112;DHT22;1062;52.538;13.400;2022-12-26T03:27:36;9.70;99.90
2112;DHT22;1062;52.538;13.400;2022-12-26T03:30:03;9.70;99.90
2112;DHT22;1062;52.538;13.400;2022-12-26T03:32:47;9.80;99.90
2112;DHT22;1062;52.538;13.400;2022-12-26T03:35:13;9.80;99.90
2112;DHT22;1062;52.538;13.400;2022-12-26T03:41:01;9.80;99.90
2112;DHT22;1062;52.538;13.400;2022-12-26T03:46:50;9.80;99.90
2112;DHT22;1062;52.538;13.400;2022-12-26T03:49:44;9.80;99.90
2112;DHT22;1062;52.538;13.400;2022-12-26T03:53:39;9.90;99.90
2112;DHT22;1062;52.538;13.400;2022-12-26T03:59:07;9.90;99.90
2112;DHT22;1062;52.538;13.400;2022-12-26T04:01:54;9.90;99.90
2112;DHT22;1062;52.538;13.400;2022-12-26T04:04:43;10.00;99.90
2112;DHT22;1062;52.538;13.400;2022-12-26T04:07:34;10.00;99.90
2112;DHT22;1062;52.538;13.400;2022-12-26T04:10:44;10.00;99.90
2112;DHT22;1062;52.538;13.400;2022-12-26T04:22:50;10.10;99.90
2112;DHT22;1062;52.538;13.400;2022-12-26T04:25:52;10.10;99.90
2112;DHT22;1062;52.538;13.400;2022-12-26T04:28:37;10.10;99.90
2112;DHT22;1062;52.538;13.400;2022-12-26T04:31:49;10.10;99.90
2112;DHT22;1062;52.538;13.400;2022-12-26T04:35:02;10.20;99.90
2112;DHT22;1062;52.538;13.400;2022-12-26T04:37:48;10.20;99.90
2112;DHT22;1062;52.538;13.400;2022-12-26T04:40:36;10.10;99.90
2112;DHT22;1062;52.538;13.400;2022-12-26T04:43:22;10.10;99.90
2112;DHT22;1062;52.538;13.400;2022-12-26T04:46:07;10.10;99.90
2112;DHT22;1062;52.538;13.400;2022-12-26T04:48:44;10.10;99.90
2112;DHT22;1062;52.538;13.400;2022-12-26T04:51:29;10.10;99.90
2112;DHT22;1062;52.538;13.400;2022-12-26T04:53:55;10.20;99.90
2112;DHT22;1062;52.538;13.400;2022-12-26T04:56:20;10.20;99.90
2112;DHT22;1062;52.538;13.400;2022-12-26T04:58:46;10.20;99.90
2112;DHT22;1062;52.538;13.400;2022-12-26T05:01:11;10.20;99.90
2112;DHT22;1062;52.538;13.400;2022-12-26T05:03:55;10.20;99.90
2112;DHT22;1062;52.538;13.400;2022-12-26T05:06:40;10.20;99.90
2112;DHT22;1062;52.538;13.400;2022-12-26T05:09:24;10.20;99.90
2112;DHT22;1062;52.538;13.400;2022-12-26T05:12:02;10.20;99.90
2112;DHT22;1062;52.538;13.400;2022-12-26T05:14:28;10.20;99.90
2112;DHT22;1062;52.538;13.400;2022-12-26T05:16:58;10.20;99.90
2112;DHT22;1062;52.538;13.400;2022-12-26T05:19:43;10.20;99.90
2112;DHT22;1062;52.538;13.400;2022-12-26T05:22:29;10.20;99.90
2112;DHT22;1062;52.538;13.400;2022-12-26T05:25:20;10.20;99.90
2112;DHT22;1062;52.538;13.400;2022-12-26T05:28:11;10.20;99.90
2112;DHT22;1062;52.538;13.400;2022-12-26T05:30:56;10.20;99.90
2112;DHT22;1062;52.538;13.400;2022-12-26T05:33:21;10.30;99.90
2112;DHT22;1062;52.538;13.400;2022-12-26T05:36:07;10.20;99.90
2112;DHT22;1062;52.538;13.400;2022-12-26T05:38:33;10.30;99.90
2112;DHT22;1062;52.538;13.400;2022-12-26T05:40:59;10.30;99.90
2112;DHT22;1062;52.538;13.400;2022-12-26T05:43:24;10.30;99.90
2112;DHT22;1062;52.538;13.400;2022-12-26T05:45:50;10.30;99.90
2112;DHT22;1062;52.538;13.400;2022-12-26T05:48:15;10.30;99.90
2112;DHT22;1062;52.538;13.400;2022-12-26T05:50:41;10.40;99.90
2112;DHT22;1062;52.538;13.400;2022-12-26T05:53:06;10.40;99.90
2112;DHT22;1062;52.538;13.400;2022-12-26T05:55:32;10.30;99.90
2112;DHT22;1062;52.538;13.400;2022-12-26T05:58:00;10.40;99.90
2112;DHT22;1062;52.538;13.400;2022-12-26T06:00:27;10.40;99.90
2112;DHT22;1062;52.538;13.400;2022-12-26T06:02:54;10.40;99.90
2112;DHT22;1062;52.538;13.400;2022-12-26T06:05:21;10.40;99.90
2112;DHT22;1062;52.538;13.400;2022-12-26T06:07:46;10.30;99.90
2112;DHT22;1062;52.538;13.400;2022-12-26T06:10:12;10.40;99.90
2112;DHT22;1062;52.538;13.400;2022-12-26T06:12:38;10.30;99.90
2112;DHT22;1062;52.538;13.400;2022-12-26T06:15:04;10.40;99.90
2112;DHT22;1062;52.538;13.400;2022-12-26T06:17:29;10.40;99.90
2112;DHT22;1062;52.538;13.400;2022-12-26T06:19:55;10.40;99.90
2112;DHT22;1062;52.538;13.400;2022-12-26T06:22:21;10.40;99.90
2112;DHT22;1062;52.538;13.400;2022-12-26T06:24:46;10.30;99.90
2112;DHT22;1062;52.538;13.400;2022-12-26T06:27:12;10.30;99.90
2112;DHT22;1062;52.538;13.400;2022-12-26T06:29:37;10.40;99.90
2112;DHT22;1062;52.538;13.400;2022-12-26T06:32:03;10.30;99.90
2112;DHT22;1062;52.538;13.400;2022-12-26T06:34:29;10.30;99.90
2112;DHT22;1062;52.538;13.400;2022-12-26T06:36:54;10.30;99.90
2112;DHT22;1062;52.538;13.400;2022-12-26T06:39:21;10.30;99.90
2112;DHT22;1062;52.538;13.400;2022-12-26T06:41:47;10.30;99.90
2112;DHT22;1062;52.538;13.400;2022-12-26T06:44:13;10.30;99.90
2112;DHT22;1062;52.538;13.400;2022-12-26T06:46:38;10.40;99.90
2112;DHT22;1062;52.538;13.400;2022-12-26T06:49:04;10.40;99.90
2112;DHT22;1062;52.538;13.400;2022-12-26T06:51:32;10.40;99.90
2112;DHT22;1062;52.538;13.400;2022-12-26T06:54:00;10.40;99.90
2112;DHT22;1062;52.538;13.400;2022-12-26T06:56:27;10.40;99.90
2112;DHT22;1062;52.538;13.400;2022-12-26T06:59:01;10.40;99.90
2112;DHT22;1062;52.538;13.400;2022-12-26T07:01:28;10.40;99.90
2112;DHT22;1062;52.538;13.400;2022-12-26T07:03:54;10.40;99.90
2112;DHT22;1062;52.538;13.400;2022-12-26T07:06:35;10.40;99.90
2112;DHT22;1062;52.538;13.400;2022-12-26T07:09:13;10.40;99.90
2112;DHT22;1062;52.538;13.400;2022-12-26T07:11:41;10.50;99.90
2112;DHT22;1062;52.538;13.400;2022-12-26T07:14:07;10.50;99.90
2112;DHT22;1062;52.538;13.400;2022-12-26T07:16:38;10.40;99.90
2112;DHT22;1062;52.538;13.400;2022-12-26T07:19:04;10.50;99.90
2112;DHT22;1062;52.538;13.400;2022-12-26T07:21:30;10.50;99.90
2112;DHT22;1062;52.538;13.400;2022-12-26T07:23:56;10.40;99.90
2112;DHT22;1062;52.538;13.400;2022-12-26T07:26:23;10.40;99.90
2112;DHT22;1062;52.538;13.400;2022-12-26T07:28:55;10.40;99.90
2112;DHT22;1062;52.538;13.400;2022-12-26T07:31:22;10.40;99.90
2112;DHT22;1062;52.538;13.400;2022-12-26T07:33:50;10.40;99.90
2112;DHT22;1062;52.538;13.400;2022-12-26T07:36:16;10.40;99.90
2112;DHT22;1062;52.538;13.400;2022-12-26T07:38:42;10.40;99.90
2112;DHT22;1062;52.538;13.400;2022-12-26T07:41:07;10.50;99.90
2112;DHT22;1062;52.538;13.400;2022-12-26T07:43:52;10.40;99.90
2112;DHT22;1062;52.538;13.400;2022-12-26T07:46:18;10.40;99.90
2112;DHT22;1062;52.538;13.400;2022-12-26T07:48:44;10.40;99.90
2112;DHT22;1062;52.538;13.400;2022-12-26T07:51:09;10.40;99.90
2112;DHT22;1062;52.538;13.400;2022-12-26T07:53:35;10.40;99.90
2112;DHT22;1062;52.538;13.400;2022-12-26T07:56:01;10.40;99.90
2112;DHT22;1062;52.538;13.400;2022-12-26T07:58:26;10.40;99.90
2112;DHT22;1062;52.538;13.400;2022-12-26T08:00:52;10.40;99.90
2112;DHT22;1062;52.538;13.400;2022-12-26T08:03:17;10.50;99.90
2112;DHT22;1062;52.538;13.400;2022-12-26T08:05:47;10.50;99.90
2112;DHT22;1062;52.538;13.400;2022-12-26T08:08:13;10.50;99.90
2112;DHT22;1062;52.538;13.400;2022-12-26T08:10:39;10.50;99.90
2112;DHT22;1062;52.538;13.400;2022-12-26T08:13:05;10.60;99.90
2112;DHT22;1062;52.538;13.400;2022-12-26T08:15:30;10.50;99.90
2112;DHT22;1062;52.538;13.400;2022-12-26T08:17:56;10.50;99.90
2112;DHT22;1062;52.538;13.400;2022-12-26T08:20:22;10.60;99.90
2112;DHT22;1062;52.538;13.400;2022-12-26T08:22:48;10.60;99.90
2112;DHT22;1062;52.538;13.400;2022-12-26T08:25:14;10.50;99.90
2112;DHT22;1062;52.538;13.400;2022-12-26T08:27:39;10.60;99.90
2112;DHT22;1062;52.538;13.400;2022-12-26T08:30:05;10.50;99.90
2112;DHT22;1062;52.538;13.400;2022-12-26T08:32:31;10.60;99.90
2112;DHT22;1062;52.538;13.400;2022-12-26T08:34:57;10.60;99.90
2112;DHT22;1062;52.538;13.400;2022-12-26T08:37:22;10.60;99.90
2112;DHT22;1062;52.538;13.400;2022-12-26T08:39:50;10.60;99.90
2112;DHT22;1062;52.538;13.400;2022-12-26T08:42:17;10.70;99.90
2112;DHT22;1062;52.538;13.400;2022-12-26T08:44:43;10.70;99.90
2112;DHT22;1062;52.538;13.400;2022-12-26T08:47:08;10.70;99.90
2112;DHT22;1062;52.538;13.400;2022-12-26T08:49:34;10.70;99.90
2112;DHT22;1062;52.538;13.400;2022-12-26T08:52:00;10.70;99.90
2112;DHT22;1062;52.538;13.400;2022-12-26T08:54:25;10.70;99.90
2112;DHT22;1062;52.538;13.400;2022-12-26T08:56:51;10.70;99.90
2112;DHT22;1062;52.538;13.400;2022-12-26T08:59:16;10.90;99.90
2112;DHT22;1062;52.538;13.400;2022-12-26T09:01:43;10.90;99.90
2112;DHT22;1062;52.538;13.400;2022-12-26T09:04:08;11.00;99.90
2112;DHT22;1062;52.538;13.400;2022-12-26T09:06:36;10.90;99.90
2112;DHT22;1062;52.538;13.400;2022-12-26T09:09:03;10.80;99.90
2112;DHT22;1062;52.538;13.400;2022-12-26T09:11:29;10.80;99.90
2112;DHT22;1062;52.538;13.400;2022-12-26T09:13:57;10.80;99.90
2112;DHT22;1062;52.538;13.400;2022-12-26T09:16:29;10.80;99.90
2112;DHT22;1062;52.538;13.400;2022-12-26T09:18:59;11.00;99.90
2112;DHT22;1062;52.538;13.400;2022-12-26T09:21:25;10.90;99.90
2112;DHT22;1062;52.538;13.400;2022-12-26T09:24:03;10.90;99.90
2112;DHT22;1062;52.538;13.400;2022-12-26T09:26:29;10.90;99.90
2112;DHT22;1062;52.538;13.400;2022-12-26T09:28:55;11.00;99.90
2112;DHT22;1062;52.538;13.400;2022-12-26T09:31:23;11.00;99.90
2112;DHT22;1062;52.538;13.400;2022-12-26T09:33:49;11.10;99.90
2112;DHT22;1062;52.538;13.400;2022-12-26T09:36:17;11.00;99.90
2112;DHT22;1062;52.538;13.400;2022-12-26T09:38:44;11.10;99.90
2112;DHT22;1062;52.538;13.400;2022-12-26T09:46:30;11.20;99.90
2112;DHT22;1062;52.538;13.400;2022-12-26T09:51:26;11.10;99.90
2112;DHT22;1062;52.538;13.400;2022-12-26T09:53:54;11.10;99.90
2112;DHT22;1062;52.538;13.400;2022-12-26T09:56:21;11.00;99.90
2112;DHT22;1062;52.538;13.400;2022-12-26T09:58:51;11.00;99.90
2112;DHT22;1062;52.538;13.400;2022-12-26T10:01:38;11.10;99.90
2112;DHT22;1062;52.538;13.400;2022-12-26T10:04:12;11.10;99.90
2112;DHT22;1062;52.538;13.400;2022-12-26T10:06:47;11.10;99.90
2112;DHT22;1062;52.538;13.400;2022-12-26T10:09:38;11.20;99.90
2112;DHT22;1062;52.538;13.400;2022-12-26T10:29:01;11.40;99.90
2112;DHT22;1062;52.538;13.400;2022-12-26T10:34:24;11.30;99.90
2112;DHT22;1062;52.538;13.400;2022-12-26T10:37:10;11.30;99.90
2112;DHT22;1062;52.538;13.400;2022-12-26T10:39:54;11.20;99.90
2112;DHT22;1062;52.538;13.400;2022-12-26T10:44:52;11.20;99.90
2112;DHT22;1062;52.538;13.400;2022-12-26T10:47:29;11.20;99.90
2112;DHT22;1062;52.538;13.400;2022-12-26T10:49:58;11.10;99.90
2112;DHT22;1062;52.538;13.400;2022-12-26T10:52:29;11.10;99.90
2112;DHT22;1062;52.538;13.400;2022-12-26T10:54:57;11.10;99.90
2112;DHT22;1062;52.538;13.400;2022-12-26T10:57:26;11.10;99.90
2112;DHT22;1062;52.538;13.400;2022-12-26T10:59:53;11.00;99.90
2112;DHT22;1062;52.538;13.400;2022-12-26T11:02:30;11.10;99.90
2112;DHT22;1062;52.538;13.400;2022-12-26T11:07:30;11.00;99.90
2112;DHT22;1062;52.538;13.400;2022-12-26T11:09:57;10.90;99.90
2112;DHT22;1062;52.538;13.400;2022-12-26T11:12:41;10.90;99.90
2112;DHT22;1062;52.538;13.400;2022-12-26T11:15:22;10.90;99.90
2112;DHT22;1062;52.538;13.400;2022-12-26T11:17:50;10.90;99.90
2112;DHT22;1062;52.538;13.400;2022-12-26T11:22:45;10.90;99.90
2112;DHT22;1062;52.538;13.400;2022-12-26T11:27:56;10.90;99.90
2112;DHT22;1062;52.538;13.400;2022-12-26T11:33:02;10.80;99.90
2112;DHT22;1062;52.538;13.400;2022-12-26T11:35:29;10.80;99.90
2112;DHT22;1062;52.538;13.400;2022-12-26T11:38:02;10.70;99.90
2112;DHT22;1062;52.538;13.400;2022-12-26T11:40:36;10.70;99.90
2112;DHT22;1062;52.538;13.400;2022-12-26T11:43:05;10.80;99.90
2112;DHT22;1062;52.538;13.400;2022-12-26T11:45:37;10.70;99.90
2112;DHT22;1062;52.538;13.400;2022-12-26T11:48:17;10.70;99.90
2112;DHT22;1062;52.538;13.400;2022-12-26T11:50:44;10.80;99.90
2112;DHT22;1062;52.538;13.400;2022-12-26T11:53:15;10.80;99.90
2112;DHT22;1062;52.538;13.400;2022-12-26T11:55:42;10.90;99.90
2112;DHT22;1062;52.538;13.400;2022-12-26T12:03:46;11.00;99.90
2112;DHT22;1062;52.538;13.400;2022-12-26T12:06:26;11.10;99.90
2112;DHT22;1062;52.538;13.400;2022-12-26T12:14:57;11.00;99.90
2112;DHT22;1062;52.538;13.400;2022-12-26T12:17:54;10.90;99.90
2112;DHT22;1062;52.538;13.400;2022-12-26T12:23:47;10.90;99.90
2112;DHT22;1062;52.538;13.400;2022-12-26T12:26:28;10.70;99.90
2112;DHT22;1062;52.538;13.400;2022-12-26T12:37:05;10.70;99.90
2112;DHT22;1062;52.538;13.400;2022-12-26T12:48:29;10.60;99.90
2112;DHT22;1062;52.538;13.400;2022-12-26T12:51:40;10.70;99.90
2112;DHT22;1062;52.538;13.400;2022-12-26T12:59:35;10.80;99.90
2112;DHT22;1062;52.538;13.400;2022-12-26T13:02:22;10.80;99.90
2112;DHT22;1062;52.538;13.400;2022-12-26T13:04:58;10.90;99.90
2112;DHT22;1062;52.538;13.400;2022-12-26T13:07:33;10.90;99.90
2112;DHT22;1062;52.538;13.400;2022-12-26T13:10:11;10.90;99.90
2112;DHT22;1062;52.538;13.400;2022-12-26T13:12:40;10.90;99.90
2112;DHT22;1062;52.538;13.400;2022-12-26T13:18:05;10.90;99.90
2112;DHT22;1062;52.538;13.400;2022-12-26T13:20:41;10.90;99.90
2112;DHT22;1062;52.538;13.400;2022-12-26T13:23:28;10.80;99.90
2112;DHT22;1062;52.538;13.400;2022-12-26T13:26:44;10.70;99.90
2112;DHT22;1062;52.538;13.400;2022-12-26T13:29:38;10.60;99.90
2112;DHT22;1062;52.538;13.400;2022-12-26T13:32:22;10.60;99.90
2112;DHT22;1062;52.538;13.400;2022-12-26T13:34:50;10.60;99.90
2112;DHT22;1062;52.538;13.400;2022-12-26T13:50:51;10.40;99.90
2112;DHT22;1062;52.538;13.400;2022-12-26T14:10:09;10.40;99.90
2112;DHT22;1062;52.538;13.400;2022-12-26T14:15:41;10.40;99.90
2112;DHT22;1062;52.538;13.400;2022-12-26T14:18:18;10.40;99.90
2112;DHT22;1062;52.538;13.400;2022-12-26T14:21:18;10.40;99.90
2112;DHT22;1062;52.538;13.400;2022-12-26T14:23:57;10.30;99.90
2112;DHT22;1062;52.538;13.400;2022-12-26T14:40:29;10.00;99.90
2112;DHT22;1062;52.538;13.400;2022-12-26T14:45:51;9.80;99.90
2112;DHT22;1062;52.538;13.400;2022-12-26T14:50:55;9.70;99.90
2112;DHT22;1062;52.538;13.400;2022-12-26T14:53:40;9.80;99.90
2112;DHT22;1062;52.538;13.400;2022-12-26T14:58:48;9.80;99.90
2112;DHT22;1062;52.538;13.400;2022-12-26T15:03:58;9.90;99.90
2112;DHT22;1062;52.538;13.400;2022-12-26T15:15:03;10.00;99.90
2112;DHT22;1062;52.538;13.400;2022-12-26T15:20:43;10.00;99.90
2112;DHT22;1062;52.538;13.400;2022-12-26T15:29:50;10.20;99.90
2112;DHT22;1062;52.538;13.400;2022-12-26T15:32:45;10.10;99.90
2112;DHT22;1062;52.538;13.400;2022-12-26T15:46:21;9.70;99.90
2112;DHT22;1062;52.538;13.400;2022-12-26T15:51:48;9.60;99.90
2112;DHT22;1062;52.538;13.400;2022-12-26T15:57:28;9.60;99.90
2112;DHT22;1062;52.538;13.400;2022-12-26T16:02:29;9.60;99.90
2112;DHT22;1062;52.538;13.400;2022-12-26T16:07:52;9.50;99.90
2112;DHT22;1062;52.538;13.400;2022-12-26T16:10:33;9.40;99.90
2112;DHT22;1062;52.538;13.400;2022-12-26T16:15:56;9.50;99.90
2112;DHT22;1062;52.538;13.400;2022-12-26T16:18:30;9.50;99.90
2112;DHT22;1062;52.538;13.400;2022-12-26T16:21:01;9.50;99.90
2112;DHT22;1062;52.538;13.400;2022-12-26T16:23:48;9.60;99.90
2112;DHT22;1062;52.538;13.400;2022-12-26T16:26:18;9.60;99.90
2112;DHT22;1062;52.538;13.400;2022-12-26T16:28:47;9.60;99.90
2112;DHT22;1062;52.538;13.400;2022-12-26T16:31:21;9.60;99.90
2112;DHT22;1062;52.538;13.400;2022-12-26T16:33:50;9.70;99.90
2112;DHT22;1062;52.538;13.400;2022-12-26T16:36:20;9.80;99.90
2112;DHT22;1062;52.538;13.400;2022-12-26T16:38:46;9.70;99.90
2112;DHT22;1062;52.538;13.400;2022-12-26T16:41:21;9.70;99.90
2112;DHT22;1062;52.538;13.400;2022-12-26T16:43:48;9.80;99.90
2112;DHT22;1062;52.538;13.400;2022-12-26T16:46:14;9.80;99.90
2112;DHT22;1062;52.538;13.400;2022-12-26T16:48:44;9.80;99.90
2112;DHT22;1062;52.538;13.400;2022-12-26T16:51:37;9.80;99.90
2112;DHT22;1062;52.538;13.400;2022-12-26T16:54:27;9.90;99.90
2112;DHT22;1062;52.538;13.400;2022-12-26T16:57:17;9.90;99.90
2112;DHT22;1062;52.538;13.400;2022-12-26T16:59:51;9.80;99.90
2112;DHT22;1062;52.538;13.400;2022-12-26T17:02:24;9.90;99.90
2112;DHT22;1062;52.538;13.400;2022-12-26T17:04:55;9.90;99.90
2112;DHT22;1062;52.538;13.400;2022-12-26T17:07:23;10.00;99.90
2112;DHT22;1062;52.538;13.400;2022-12-26T17:09:53;9.90;99.90
2112;DHT22;1062;52.538;13.400;2022-12-26T17:12:34;10.00;99.90
2112;DHT22;1062;52.538;13.400;2022-12-26T17:15:03;9.90;99.90
2112;DHT22;1062;52.538;13.400;2022-12-26T17:17:38;9.90;99.90
2112;DHT22;1062;52.538;13.400;2022-12-26T17:20:31;9.90;99.90
2112;DHT22;1062;52.538;13.400;2022-12-26T17:22:57;9.90;99.90
2112;DHT22;1062;52.538;13.400;2022-12-26T17:25:26;9.90;99.90
2112;DHT22;1062;52.538;13.400;2022-12-26T17:30:40;9.90;99.90
2112;DHT22;1062;52.538;13.400;2022-12-26T17:33:21;9.90;99.90
2112;DHT22;1062;52.538;13.400;2022-12-26T17:38:24;9.80;99.90
2112;DHT22;1062;52.538;13.400;2022-12-26T17:40:55;9.80;99.90
2112;DHT22;1062;52.538;13.400;2022-12-26T17:43:28;9.70;99.90
2112;DHT22;1062;52.538;13.400;2022-12-26T17:45:54;9.70;99.90
2112;DHT22;1062;52.538;13.400;2022-12-26T17:48:20;9.70;99.90
2112;DHT22;1062;52.538;13.400;2022-12-26T17:50:47;9.50;99.90
2112;DHT22;1062;52.538;13.400;2022-12-26T17:53:24;9.50;99.90
2112;DHT22;1062;52.538;13.400;2022-12-26T17:55:52;9.40;99.90
2112;DHT22;1062;52.538;13.400;2022-12-26T17:58:18;9.30;99.90
2112;DHT22;1062;52.538;13.400;2022-12-26T18:00:44;9.30;99.90
2112;DHT22;1062;52.538;13.400;2022-12-26T18:03:11;9.40;99.90
2112;DHT22;1062;52.538;13.400;2022-12-26T18:05:36;9.30;99.90
2112;DHT22;1062;52.538;13.400;2022-12-26T18:08:03;9.20;99.90
2112;DHT22;1062;52.538;13.400;2022-12-26T18:10:32;9.30;99.90
2112;DHT22;1062;52.538;13.400;2022-12-26T18:12:58;9.20;99.90
2112;DHT22;1062;52.538;13.400;2022-12-26T18:15:25;9.20;99.90
2112;DHT22;1062;52.538;13.400;2022-12-26T18:17:52;9.10;99.90
2112;DHT22;1062;52.538;13.400;2022-12-26T18:20:24;9.10;99.90
2112;DHT22;1062;52.538;13.400;2022-12-26T18:22:51;9.10;99.90
2112;DHT22;1062;52.538;13.400;2022-12-26T18:25:19;9.10;99.90
2112;DHT22;1062;52.538;13.400;2022-12-26T18:27:45;9.00;99.90
2112;DHT22;1062;52.538;13.400;2022-12-26T18:30:20;9.00;99.90
2112;DHT22;1062;52.538;13.400;2022-12-26T18:32:47;8.90;99.90
2112;DHT22;1062;52.538;13.400;2022-12-26T18:35:14;8.90;99.90
2112;DHT22;1062;52.538;13.400;2022-12-26T18:37:44;8.80;99.90
2112;DHT22;1062;52.538;13.400;2022-12-26T18:40:40;8.90;99.90
2112;DHT22;1062;52.538;13.400;2022-12-26T18:43:07;8.80;99.90
2112;DHT22;1062;52.538;13.400;2022-12-26T18:45:33;8.80;99.90
2112;DHT22;1062;52.538;13.400;2022-12-26T18:48:00;8.70;99.90
2112;DHT22;1062;52.538;13.400;2022-12-26T18:50:27;8.70;99.90
2112;DHT22;1062;52.538;13.400;2022-12-26T18:52:53;8.60;99.90
2112;DHT22;1062;52.538;13.400;2022-12-26T18:55:18;8.50;99.90
2112;DHT22;1062;52.538;13.400;2022-12-26T18:57:44;8.50;99.90
2112;DHT22;1062;52.538;13.400;2022-12-26T19:00:15;8.40;99.90
2112;DHT22;1062;52.538;13.400;2022-12-26T19:02:42;8.40;99.90
2112;DHT22;1062;52.538;13.400;2022-12-26T19:05:20;8.40;99.90
2112;DHT22;1062;52.538;13.400;2022-12-26T19:07:47;8.40;99.90
2112;DHT22;1062;52.538;13.400;2022-12-26T19:10:16;8.30;99.90
2112;DHT22;1062;52.538;13.400;2022-12-26T19:12:42;8.30;99.90
2112;DHT22;1062;52.538;13.400;2022-12-26T19:15:09;8.20;99.90
2112;DHT22;1062;52.538;13.400;2022-12-26T19:17:34;8.20;99.90
2112;DHT22;1062;52.538;13.400;2022-12-26T19:20:01;8.20;99.90
2112;DHT22;1062;52.538;13.400;2022-12-26T19:22:26;8.10;99.90
2112;DHT22;1062;52.538;13.400;2022-12-26T19:24:52;8.00;99.90
2112;DHT22;1062;52.538;13.400;2022-12-26T19:27:18;8.00;99.90
2112;DHT22;1062;52.538;13.400;2022-12-26T19:29:43;8.00;99.90
2112;DHT22;1062;52.538;13.400;2022-12-26T19:32:09;7.90;99.90
2112;DHT22;1062;52.538;13.400;2022-12-26T19:34:35;7.90;99.90
2112;DHT22;1062;52.538;13.400;2022-12-26T19:37:00;7.80;99.90
2112;DHT22;1062;52.538;13.400;2022-12-26T19:39:26;7.70;99.90
2112;DHT22;1062;52.538;13.400;2022-12-26T19:41:52;7.70;99.90
2112;DHT22;1062;52.538;13.400;2022-12-26T19:44:17;7.60;99.90
2112;DHT22;1062;52.538;13.400;2022-12-26T19:46:43;7.50;99.90
2112;DHT22;1062;52.538;13.400;2022-12-26T19:49:08;7.50;99.90
2112;DHT22;1062;52.538;13.400;2022-12-26T19:51:34;7.40;99.90
2112;DHT22;1062;52.538;13.400;2022-12-26T19:54:00;7.40;99.90
2112;DHT22;1062;52.538;13.400;2022-12-26T19:56:26;7.40;99.90
2112;DHT22;1062;52.538;13.400;2022-12-26T19:58:53;7.30;99.90
2112;DHT22;1062;52.538;13.400;2022-12-26T20:01:21;7.40;99.90
2112;DHT22;1062;52.538;13.400;2022-12-26T20:03:47;7.30;99.90
2112;DHT22;1062;52.538;13.400;2022-12-26T20:06:15;7.30;99.90
2112;DHT22;1062;52.538;13.400;2022-12-26T20:08:42;7.20;99.90
2112;DHT22;1062;52.538;13.400;2022-12-26T20:11:19;7.20;99.90
2112;DHT22;1062;52.538;13.400;2022-12-26T20:13:45;7.20;99.90
2112;DHT22;1062;52.538;13.400;2022-12-26T20:16:12;7.20;99.90